Terminal Aerodrome Forecast
Issued by NWS

Home | Current Version | Previous Version | Text Only | Print | Product List | Glossary On
Versions: 1 2 3 4 5 6 7 8 9 10 11 12 13 14 15 16 17 18 19 20 21 22 23 24
788
FTUS43 KDLH 181721
TAFHIB
TAF
KHIB 181721Z 1818/1918 17011G18KT P6SM SCT090
     FM190000 17007KT P6SM BKN035
     FM190300 16005KT P6SM BKN030
     FM190500 16004KT P6SM BKN015
     FM190700 16004KT 4SM BR BKN008
     FM191400 14006KT P6SM BKN008
     FM191700 15008KT P6SM BKN040=

USA.gov is the U.S. government's official web portal to all federal, state and local government web resources and services.